Cotopaxi International Airport


Codes: SELT/LTX
Name: Cotopaxi International Airport
City: Latacunga
Country: Ecuador
Elevation: 9205 ft.
Website:
Wikipedia:

Photos at Cotopaxi International Airport


   Photos courtesy of SpottingLog. You can add your own sightings and photos by signing up for a free trial today.



No photos found.

Weather at Cotopaxi International Airport


Time (UTC)DescriptionTempratureWindCloud coverageVisibilityPressureHumidity
13-Jun-2024 03:00Light Rain12°C4 mph, SE80%10000m1028hPa82%
13-Jun-2024 06:00Overcast Clouds12°C4 mph, SE85%10000m1024hPa88%
13-Jun-2024 09:00Overcast Clouds11°C4 mph, SE100%10000m1019hPa92%
13-Jun-2024 12:00Broken Clouds11°C4 mph, SE82%10000m1021hPa91%
13-Jun-2024 15:00Broken Clouds16°C4 mph, SE60%10000m1019hPa70%
13-Jun-2024 18:00Light Rain17°C7 mph, SE70%10000m1016hPa69%
13-Jun-2024 21:00Light Rain16°C7 mph, SE88%10000m1015hPa76%
14-Jun-2024 00:00Light Rain13°C2 mph, SE86%10000m1018hPa87%
14-Jun-2024 03:00Light Rain12°C2 mph, SE100%10000m1020hPa87%
14-Jun-2024 06:00Overcast Clouds10°C2 mph, SE100%10000m1020hPa90%
14-Jun-2024 09:00Overcast Clouds10°C4 mph, SE97%10000m1019hPa90%
14-Jun-2024 12:00Overcast Clouds11°C4 mph, SE96%10000m1020hPa93%
14-Jun-2024 15:00Light Rain15°C7 mph, SE92%10000m1019hPa78%
14-Jun-2024 18:00Light Rain15°C7 mph, SE94%10000m1017hPa74%
14-Jun-2024 21:00Light Rain16°C4 mph, SE91%10000m1013hPa72%
15-Jun-2024 00:00Light Rain13°C4 mph, SE83%10000m1017hPa90%
15-Jun-2024 03:00Light Rain11°C4 mph, SE79%10000m1020hPa91%
15-Jun-2024 06:00Light Rain11°C4 mph, SE88%10000m1020hPa91%
15-Jun-2024 09:00Light Rain11°C2 mph, SE100%10000m1019hPa94%
15-Jun-2024 12:00Light Rain11°C4 mph, SE100%10000m1020hPa90%
15-Jun-2024 15:00Light Rain12°C2 mph, SE100%10000m1021hPa86%
15-Jun-2024 18:00Light Rain14°C7 mph, SE97%10000m1018hPa82%
15-Jun-2024 21:00Light Rain12°C4 mph, SE100%10000m1017hPa89%
16-Jun-2024 00:00Light Rain11°C4 mph, SE100%10000m1019hPa93%
16-Jun-2024 03:00Light Rain11°C4 mph, SE100%10000m1021hPa97%
16-Jun-2024 06:00Light Rain11°C4 mph, SE100%10000m1020hPa95%
16-Jun-2024 09:00Light Rain11°C2 mph, SE100%10000m1019hPa96%
16-Jun-2024 12:00Light Rain11°C4 mph, SE100%9903m1020hPa95%
16-Jun-2024 15:00Light Rain11°C4 mph, SE100%10000m1021hPa93%
16-Jun-2024 18:00Light Rain12°C7 mph, SE100%10000m1020hPa91%
16-Jun-2024 21:00Light Rain12°C4 mph, SE100%10000m1018hPa91%
17-Jun-2024 00:00Light Rain10°C7 mph, SE96%10000m1020hPa91%
17-Jun-2024 03:00Broken Clouds8°C7 mph, SE73%10000m1023hPa93%
17-Jun-2024 06:00Light Rain9°C4 mph, SE82%10000m1022hPa95%
17-Jun-2024 09:00Light Rain9°C4 mph, SE97%10000m1020hPa97%
17-Jun-2024 12:00Light Rain9°C2 mph, SE98%10000m1021hPa97%
17-Jun-2024 15:00Light Rain11°C4 mph, SE96%10000m1021hPa91%
17-Jun-2024 18:00Light Rain13°C7 mph, SE93%10000m1019hPa82%
17-Jun-2024 21:00Light Rain13°C4 mph, SE71%10000m1016hPa82%
18-Jun-2024 00:00Broken Clouds10°C4 mph, SE56%10000m1019hPa91%